Rockfall, Connecticut
Current Conditions -  °F | °C
As of 5:53 PM on Thursday 20 Nov 2014 (Local Time) from KMMK Reporting Station
Clear Clear  
Wind Chill: 37°   Ceiling: Unl
Heat Index: 40°   Visibility: 10mi
Dew Point: 15°   Wind: 5mph
Humidity: 36%   Direction: 240°WSW
Pressure: 29.86"   Gusts: NA
Location:  41.53°N, 72.7°W
Report Text: KMMK 202253Z AUTO 24004KT 10SM CLR 04/M09 A2986 RMK AO2 SLP113 T00441094 TSNO
Loading
Personal Weather Stations






























Interactive Weather Map New forecast layout! Learn more

10-Day Weather Forecast

Advertisements
Track Severe Weather on mobile